sensor_id;sensor_type;location;lat;lon;timestamp;P1;durP1;ratioP1;P2;durP2;ratioP2
11394;SDS011;5753;54.402;10.220;2023-03-14T00:02:08;26.80;;;5.32;;
11394;SDS011;5753;54.402;10.220;2023-03-14T00:04:34;16.25;;;5.28;;
11394;SDS011;5753;54.402;10.220;2023-03-14T00:07:00;10.70;;;2.50;;
11394;SDS011;5753;54.402;10.220;2023-03-14T00:09:27;15.25;;;5.00;;
11394;SDS011;5753;54.402;10.220;2023-03-14T00:11:54;12.15;;;4.07;;
11394;SDS011;5753;54.402;10.220;2023-03-14T00:14:22;15.45;;;4.80;;
11394;SDS011;5753;54.402;10.220;2023-03-14T00:16:48;23.27;;;5.97;;
11394;SDS011;5753;54.402;10.220;2023-03-14T00:19:14;13.73;;;4.40;;
11394;SDS011;5753;54.402;10.220;2023-03-14T00:21:41;22.02;;;4.55;;
11394;SDS011;5753;54.402;10.220;2023-03-14T00:24:07;14.57;;;4.05;;
11394;SDS011;5753;54.402;10.220;2023-03-14T00:26:33;15.38;;;4.35;;
11394;SDS011;5753;54.402;10.220;2023-03-14T00:29:00;18.95;;;3.78;;
11394;SDS011;5753;54.402;10.220;2023-03-14T00:31:26;44.35;;;6.30;;
11394;SDS011;5753;54.402;10.220;2023-03-14T00:33:52;12.43;;;3.15;;
11394;SDS011;5753;54.402;10.220;2023-03-14T00:36:20;35.80;;;7.68;;
11394;SDS011;5753;54.402;10.220;2023-03-14T00:38:48;20.65;;;5.50;;
11394;SDS011;5753;54.402;10.220;2023-03-14T00:41:17;12.57;;;4.35;;
11394;SDS011;5753;54.402;10.220;2023-03-14T00:43:44;10.20;;;4.43;;
11394;SDS011;5753;54.402;10.220;2023-03-14T00:46:11;5.68;;;2.90;;
11394;SDS011;5753;54.402;10.220;2023-03-14T00:48:37;23.40;;;5.70;;
11394;SDS011;5753;54.402;10.220;2023-03-14T00:51:04;10.13;;;4.10;;
11394;SDS011;5753;54.402;10.220;2023-03-14T00:53:31;9.73;;;4.25;;
11394;SDS011;5753;54.402;10.220;2023-03-14T00:56:02;35.85;;;8.77;;
11394;SDS011;5753;54.402;10.220;2023-03-14T00:58:30;11.68;;;3.78;;
11394;SDS011;5753;54.402;10.220;2023-03-14T01:00:56;27.55;;;6.18;;
11394;SDS011;5753;54.402;10.220;2023-03-14T01:03:22;14.65;;;4.75;;
11394;SDS011;5753;54.402;10.220;2023-03-14T01:05:49;13.38;;;3.20;;
11394;SDS011;5753;54.402;10.220;2023-03-14T01:08:15;13.63;;;4.72;;
11394;SDS011;5753;54.402;10.220;2023-03-14T01:10:42;17.88;;;4.32;;
11394;SDS011;5753;54.402;10.220;2023-03-14T01:13:08;18.08;;;6.05;;
11394;SDS011;5753;54.402;10.220;2023-03-14T01:15:35;15.02;;;4.70;;
11394;SDS011;5753;54.402;10.220;2023-03-14T01:18:03;20.25;;;5.47;;
11394;SDS011;5753;54.402;10.220;2023-03-14T01:20:29;9.98;;;2.83;;
11394;SDS011;5753;54.402;10.220;2023-03-14T01:22:56;19.75;;;5.15;;
11394;SDS011;5753;54.402;10.220;2023-03-14T01:25:22;21.00;;;6.57;;
11394;SDS011;5753;54.402;10.220;2023-03-14T01:27:48;3.67;;;2.25;;
11394;SDS011;5753;54.402;10.220;2023-03-14T01:30:14;23.17;;;5.63;;
11394;SDS011;5753;54.402;10.220;2023-03-14T01:32:40;20.48;;;4.60;;
11394;SDS011;5753;54.402;10.220;2023-03-14T01:35:07;25.45;;;5.20;;
11394;SDS011;5753;54.402;10.220;2023-03-14T01:37:33;34.08;;;7.25;;
11394;SDS011;5753;54.402;10.220;2023-03-14T01:39:59;13.52;;;4.60;;
11394;SDS011;5753;54.402;10.220;2023-03-14T01:42:26;17.75;;;4.07;;
11394;SDS011;5753;54.402;10.220;2023-03-14T01:44:59;21.80;;;5.60;;
11394;SDS011;5753;54.402;10.220;2023-03-14T01:47:26;15.88;;;5.95;;
11394;SDS011;5753;54.402;10.220;2023-03-14T01:52:27;18.33;;;6.47;;
11394;SDS011;5753;54.402;10.220;2023-03-14T01:55:05;14.38;;;3.15;;
11394;SDS011;5753;54.402;10.220;2023-03-14T01:57:38;14.80;;;3.92;;
11394;SDS011;5753;54.402;10.220;2023-03-14T02:00:18;25.80;;;5.25;;
11394;SDS011;5753;54.402;10.220;2023-03-14T02:02:50;15.32;;;4.68;;
11394;SDS011;5753;54.402;10.220;2023-03-14T02:05:24;13.60;;;5.43;;
11394;SDS011;5753;54.402;10.220;2023-03-14T02:07:54;15.63;;;5.93;;
11394;SDS011;5753;54.402;10.220;2023-03-14T02:10:24;11.23;;;5.22;;
11394;SDS011;5753;54.402;10.220;2023-03-14T02:12:53;24.85;;;5.97;;
11394;SDS011;5753;54.402;10.220;2023-03-14T02:15:21;10.57;;;3.85;;
11394;SDS011;5753;54.402;10.220;2023-03-14T02:17:48;20.08;;;3.63;;
11394;SDS011;5753;54.402;10.220;2023-03-14T02:20:58;15.73;;;3.80;;
11394;SDS011;5753;54.402;10.220;2023-03-14T02:23:10;10.43;;;4.93;;
11394;SDS011;5753;54.402;10.220;2023-03-14T02:25:45;18.67;;;5.10;;
11394;SDS011;5753;54.402;10.220;2023-03-14T02:28:23;10.63;;;3.65;;
11394;SDS011;5753;54.402;10.220;2023-03-14T02:30:49;13.93;;;4.28;;
11394;SDS011;5753;54.402;10.220;2023-03-14T02:33:17;18.35;;;6.00;;
11394;SDS011;5753;54.402;10.220;2023-03-14T02:35:47;12.82;;;4.75;;
11394;SDS011;5753;54.402;10.220;2023-03-14T02:38:19;24.00;;;6.03;;
11394;SDS011;5753;54.402;10.220;2023-03-14T02:40:53;14.10;;;4.68;;
11394;SDS011;5753;54.402;10.220;2023-03-14T02:43:20;13.73;;;5.53;;
11394;SDS011;5753;54.402;10.220;2023-03-14T02:45:46;12.32;;;4.85;;
11394;SDS011;5753;54.402;10.220;2023-03-14T02:48:19;5.57;;;2.70;;
11394;SDS011;5753;54.402;10.220;2023-03-14T02:50:50;17.48;;;7.13;;
11394;SDS011;5753;54.402;10.220;2023-03-14T02:53:20;21.00;;;7.90;;
11394;SDS011;5753;54.402;10.220;2023-03-14T02:55:50;17.45;;;4.38;;
11394;SDS011;5753;54.402;10.220;2023-03-14T02:58:16;13.25;;;4.00;;
11394;SDS011;5753;54.402;10.220;2023-03-14T03:00:43;12.02;;;5.30;;
11394;SDS011;5753;54.402;10.220;2023-03-14T03:03:10;21.00;;;5.93;;
11394;SDS011;5753;54.402;10.220;2023-03-14T03:05:37;10.27;;;3.65;;
11394;SDS011;5753;54.402;10.220;2023-03-14T03:08:03;9.32;;;3.50;;
11394;SDS011;5753;54.402;10.220;2023-03-14T03:10:30;9.82;;;4.10;;
11394;SDS011;5753;54.402;10.220;2023-03-14T03:12:56;10.55;;;2.88;;
11394;SDS011;5753;54.402;10.220;2023-03-14T03:15:22;12.68;;;3.28;;
11394;SDS011;5753;54.402;10.220;2023-03-14T03:17:49;10.43;;;2.92;;
11394;SDS011;5753;54.402;10.220;2023-03-14T03:20:15;6.85;;;3.70;;
11394;SDS011;5753;54.402;10.220;2023-03-14T03:22:41;15.43;;;4.63;;
11394;SDS011;5753;54.402;10.220;2023-03-14T03:25:08;14.75;;;6.30;;
11394;SDS011;5753;54.402;10.220;2023-03-14T03:27:35;19.80;;;4.68;;
11394;SDS011;5753;54.402;10.220;2023-03-14T03:30:03;6.93;;;3.42;;
11394;SDS011;5753;54.402;10.220;2023-03-14T03:32:30;9.45;;;4.57;;
11394;SDS011;5753;54.402;10.220;2023-03-14T03:34:57;11.07;;;4.10;;
11394;SDS011;5753;54.402;10.220;2023-03-14T03:37:23;10.73;;;4.32;;
11394;SDS011;5753;54.402;10.220;2023-03-14T03:39:50;4.13;;;3.13;;
11394;SDS011;5753;54.402;10.220;2023-03-14T03:42:17;12.45;;;3.15;;
11394;SDS011;5753;54.402;10.220;2023-03-14T03:44:44;21.38;;;6.15;;
11394;SDS011;5753;54.402;10.220;2023-03-14T03:47:10;8.40;;;3.55;;
11394;SDS011;5753;54.402;10.220;2023-03-14T03:49:36;7.45;;;3.65;;
11394;SDS011;5753;54.402;10.220;2023-03-14T03:52:03;9.90;;;4.07;;
11394;SDS011;5753;54.402;10.220;2023-03-14T03:54:29;11.65;;;3.05;;
11394;SDS011;5753;54.402;10.220;2023-03-14T03:56:55;7.60;;;4.10;;
11394;SDS011;5753;54.402;10.220;2023-03-14T03:59:21;17.77;;;3.70;;
11394;SDS011;5753;54.402;10.220;2023-03-14T04:01:47;8.07;;;4.95;;
11394;SDS011;5753;54.402;10.220;2023-03-14T04:04:14;13.10;;;5.75;;
11394;SDS011;5753;54.402;10.220;2023-03-14T04:06:40;12.98;;;3.50;;
11394;SDS011;5753;54.402;10.220;2023-03-14T04:09:07;9.57;;;4.07;;
11394;SDS011;5753;54.402;10.220;2023-03-14T04:11:34;13.57;;;3.67;;
11394;SDS011;5753;54.402;10.220;2023-03-14T04:14:00;6.97;;;2.95;;
11394;SDS011;5753;54.402;10.220;2023-03-14T04:16:27;7.90;;;6.05;;
11394;SDS011;5753;54.402;10.220;2023-03-14T04:18:54;13.73;;;5.85;;
11394;SDS011;5753;54.402;10.220;2023-03-14T04:21:20;15.20;;;5.78;;
11394;SDS011;5753;54.402;10.220;2023-03-14T04:23:46;13.50;;;4.57;;
11394;SDS011;5753;54.402;10.220;2023-03-14T04:26:12;7.40;;;5.13;;
11394;SDS011;5753;54.402;10.220;2023-03-14T04:28:38;8.77;;;5.15;;
11394;SDS011;5753;54.402;10.220;2023-03-14T04:31:12;6.38;;;5.25;;
11394;SDS011;5753;54.402;10.220;2023-03-14T04:33:43;9.05;;;4.35;;
11394;SDS011;5753;54.402;10.220;2023-03-14T04:36:10;5.78;;;4.22;;
11394;SDS011;5753;54.402;10.220;2023-03-14T04:38:37;9.13;;;5.25;;
11394;SDS011;5753;54.402;10.220;2023-03-14T04:41:03;6.68;;;3.83;;
11394;SDS011;5753;54.402;10.220;2023-03-14T04:43:29;26.15;;;4.20;;
11394;SDS011;5753;54.402;10.220;2023-03-14T04:45:57;24.40;;;5.93;;
11394;SDS011;5753;54.402;10.220;2023-03-14T04:48:24;5.18;;;4.65;;
11394;SDS011;5753;54.402;10.220;2023-03-14T04:50:51;8.45;;;3.58;;
11394;SDS011;5753;54.402;10.220;2023-03-14T04:53:17;13.77;;;5.07;;
11394;SDS011;5753;54.402;10.220;2023-03-14T04:55:48;13.13;;;5.70;;
11394;SDS011;5753;54.402;10.220;2023-03-14T04:58:15;6.53;;;4.47;;
11394;SDS011;5753;54.402;10.220;2023-03-14T05:00:41;8.55;;;4.20;;
11394;SDS011;5753;54.402;10.220;2023-03-14T05:03:07;11.23;;;3.47;;
11394;SDS011;5753;54.402;10.220;2023-03-14T05:05:34;6.40;;;4.47;;
11394;SDS011;5753;54.402;10.220;2023-03-14T05:08:00;6.28;;;4.13;;
11394;SDS011;5753;54.402;10.220;2023-03-14T05:10:26;9.48;;;4.13;;
11394;SDS011;5753;54.402;10.220;2023-03-14T05:12:52;7.75;;;3.47;;
11394;SDS011;5753;54.402;10.220;2023-03-14T05:15:18;10.85;;;3.65;;
11394;SDS011;5753;54.402;10.220;2023-03-14T05:17:44;8.23;;;3.08;;
11394;SDS011;5753;54.402;10.220;2023-03-14T05:20:11;7.70;;;3.88;;
11394;SDS011;5753;54.402;10.220;2023-03-14T05:22:38;10.63;;;3.92;;
11394;SDS011;5753;54.402;10.220;2023-03-14T05:25:05;12.63;;;4.40;;
11394;SDS011;5753;54.402;10.220;2023-03-14T05:27:31;3.58;;;3.03;;
11394;SDS011;5753;54.402;10.220;2023-03-14T05:29:58;10.77;;;2.60;;
11394;SDS011;5753;54.402;10.220;2023-03-14T05:32:24;2.72;;;2.53;;
11394;SDS011;5753;54.402;10.220;2023-03-14T05:34:50;3.25;;;2.95;;
11394;SDS011;5753;54.402;10.220;2023-03-14T05:37:16;10.43;;;4.93;;
11394;SDS011;5753;54.402;10.220;2023-03-14T05:39:43;4.68;;;3.13;;
11394;SDS011;5753;54.402;10.220;2023-03-14T05:42:09;5.15;;;2.50;;
11394;SDS011;5753;54.402;10.220;2023-03-14T05:44:35;10.40;;;5.10;;
11394;SDS011;5753;54.402;10.220;2023-03-14T05:47:01;5.10;;;2.83;;
11394;SDS011;5753;54.402;10.220;2023-03-14T05:49:27;3.85;;;3.05;;
11394;SDS011;5753;54.402;10.220;2023-03-14T05:51:53;4.65;;;2.42;;
11394;SDS011;5753;54.402;10.220;2023-03-14T05:54:19;9.15;;;3.92;;
11394;SDS011;5753;54.402;10.220;2023-03-14T05:56:46;8.15;;;2.53;;
11394;SDS011;5753;54.402;10.220;2023-03-14T05:59:12;3.63;;;2.65;;
11394;SDS011;5753;54.402;10.220;2023-03-14T06:01:39;9.32;;;2.88;;
11394;SDS011;5753;54.402;10.220;2023-03-14T06:04:06;3.53;;;2.13;;
11394;SDS011;5753;54.402;10.220;2023-03-14T06:06:32;6.00;;;2.65;;
11394;SDS011;5753;54.402;10.220;2023-03-14T06:08:58;11.23;;;4.38;;
11394;SDS011;5753;54.402;10.220;2023-03-14T06:11:24;7.00;;;2.83;;
11394;SDS011;5753;54.402;10.220;2023-03-14T06:13:50;13.75;;;2.67;;
11394;SDS011;5753;54.402;10.220;2023-03-14T06:16:17;3.95;;;2.95;;
11394;SDS011;5753;54.402;10.220;2023-03-14T06:18:43;5.93;;;2.45;;
11394;SDS011;5753;54.402;10.220;2023-03-14T06:21:11;11.10;;;1.98;;
11394;SDS011;5753;54.402;10.220;2023-03-14T06:23:39;20.90;;;3.47;;
11394;SDS011;5753;54.402;10.220;2023-03-14T06:26:06;9.77;;;4.18;;
11394;SDS011;5753;54.402;10.220;2023-03-14T06:28:32;3.55;;;1.58;;
11394;SDS011;5753;54.402;10.220;2023-03-14T06:30:59;13.35;;;3.03;;
11394;SDS011;5753;54.402;10.220;2023-03-14T06:33:25;4.25;;;2.88;;
11394;SDS011;5753;54.402;10.220;2023-03-14T06:35:51;3.70;;;2.33;;
11394;SDS011;5753;54.402;10.220;2023-03-14T06:38:17;9.10;;;2.90;;
11394;SDS011;5753;54.402;10.220;2023-03-14T06:40:43;14.10;;;5.30;;
11394;SDS011;5753;54.402;10.220;2023-03-14T06:43:10;16.25;;;4.97;;
11394;SDS011;5753;54.402;10.220;2023-03-14T06:45:36;16.70;;;3.78;;
11394;SDS011;5753;54.402;10.220;2023-03-14T06:48:02;5.05;;;3.38;;
11394;SDS011;5753;54.402;10.220;2023-03-14T06:50:28;5.82;;;3.08;;
11394;SDS011;5753;54.402;10.220;2023-03-14T06:52:55;15.35;;;3.83;;
11394;SDS011;5753;54.402;10.220;2023-03-14T06:55:21;13.18;;;4.45;;
11394;SDS011;5753;54.402;10.220;2023-03-14T06:57:47;6.07;;;4.25;;
11394;SDS011;5753;54.402;10.220;2023-03-14T07:00:13;4.93;;;3.33;;
11394;SDS011;5753;54.402;10.220;2023-03-14T07:02:40;12.82;;;3.88;;
11394;SDS011;5753;54.402;10.220;2023-03-14T07:05:06;11.35;;;4.07;;
11394;SDS011;5753;54.402;10.220;2023-03-14T07:07:33;10.43;;;5.07;;
11394;SDS011;5753;54.402;10.220;2023-03-14T07:09:59;4.80;;;2.40;;
11394;SDS011;5753;54.402;10.220;2023-03-14T07:12:26;9.25;;;4.80;;
11394;SDS011;5753;54.402;10.220;2023-03-14T07:14:52;5.93;;;2.53;;
11394;SDS011;5753;54.402;10.220;2023-03-14T07:17:18;5.53;;;4.07;;
11394;SDS011;5753;54.402;10.220;2023-03-14T07:19:44;7.97;;;3.08;;
11394;SDS011;5753;54.402;10.220;2023-03-14T07:22:11;6.22;;;3.22;;
11394;SDS011;5753;54.402;10.220;2023-03-14T07:24:37;6.97;;;3.10;;
11394;SDS011;5753;54.402;10.220;2023-03-14T07:27:03;4.60;;;2.95;;
11394;SDS011;5753;54.402;10.220;2023-03-14T07:29:30;4.60;;;2.00;;
11394;SDS011;5753;54.402;10.220;2023-03-14T07:31:56;4.93;;;2.50;;
11394;SDS011;5753;54.402;10.220;2023-03-14T07:34:22;8.07;;;2.50;;
11394;SDS011;5753;54.402;10.220;2023-03-14T07:36:48;5.28;;;2.58;;
11394;SDS011;5753;54.402;10.220;2023-03-14T07:39:14;6.40;;;2.88;;
11394;SDS011;5753;54.402;10.220;2023-03-14T07:41:40;6.53;;;2.47;;
11394;SDS011;5753;54.402;10.220;2023-03-14T07:44:07;11.98;;;2.80;;
11394;SDS011;5753;54.402;10.220;2023-03-14T07:46:33;5.07;;;3.28;;
11394;SDS011;5753;54.402;10.220;2023-03-14T07:48:59;6.88;;;2.45;;
11394;SDS011;5753;54.402;10.220;2023-03-14T07:51:25;5.63;;;2.83;;
11394;SDS011;5753;54.402;10.220;2023-03-14T07:53:51;12.77;;;4.40;;
11394;SDS011;5753;54.402;10.220;2023-03-14T07:56:17;5.28;;;2.83;;
11394;SDS011;5753;54.402;10.220;2023-03-14T07:58:43;15.05;;;7.38;;
11394;SDS011;5753;54.402;10.220;2023-03-14T08:01:10;6.35;;;3.28;;
11394;SDS011;5753;54.402;10.220;2023-03-14T08:03:36;5.07;;;1.95;;
11394;SDS011;5753;54.402;10.220;2023-03-14T08:06:02;6.85;;;3.80;;
11394;SDS011;5753;54.402;10.220;2023-03-14T08:08:28;4.50;;;2.47;;
11394;SDS011;5753;54.402;10.220;2023-03-14T08:10:54;4.40;;;2.97;;
11394;SDS011;5753;54.402;10.220;2023-03-14T08:13:21;9.18;;;2.50;;
11394;SDS011;5753;54.402;10.220;2023-03-14T08:15:48;5.88;;;2.35;;
11394;SDS011;5753;54.402;10.220;2023-03-14T08:18:16;8.57;;;3.70;;
11394;SDS011;5753;54.402;10.220;2023-03-14T08:20:42;3.92;;;2.83;;
11394;SDS011;5753;54.402;10.220;2023-03-14T08:23:08;8.30;;;2.20;;
11394;SDS011;5753;54.402;10.220;2023-03-14T08:25:34;5.82;;;2.60;;
11394;SDS011;5753;54.402;10.220;2023-03-14T08:28:00;9.65;;;3.60;;
11394;SDS011;5753;54.402;10.220;2023-03-14T08:30:26;2.28;;;1.80;;
11394;SDS011;5753;54.402;10.220;2023-03-14T08:32:53;3.88;;;2.53;;
11394;SDS011;5753;54.402;10.220;2023-03-14T08:35:20;17.95;;;2.60;;
11394;SDS011;5753;54.402;10.220;2023-03-14T08:37:47;9.52;;;4.03;;
11394;SDS011;5753;54.402;10.220;2023-03-14T08:40:13;10.70;;;4.15;;
11394;SDS011;5753;54.402;10.220;2023-03-14T08:42:40;18.42;;;3.28;;
11394;SDS011;5753;54.402;10.220;2023-03-14T08:45:06;7.90;;;3.25;;
11394;SDS011;5753;54.402;10.220;2023-03-14T08:47:34;5.75;;;2.97;;
11394;SDS011;5753;54.402;10.220;2023-03-14T08:50:00;5.20;;;3.13;;
11394;SDS011;5753;54.402;10.220;2023-03-14T08:52:28;5.00;;;1.25;;
11394;SDS011;5753;54.402;10.220;2023-03-14T08:54:55;14.00;;;5.38;;
11394;SDS011;5753;54.402;10.220;2023-03-14T08:57:22;9.15;;;2.40;;
11394;SDS011;5753;54.402;10.220;2023-03-14T08:59:52;6.20;;;1.15;;
11394;SDS011;5753;54.402;10.220;2023-03-14T09:02:20;2.10;;;0.93;;
11394;SDS011;5753;54.402;10.220;2023-03-14T09:04:46;5.90;;;1.50;;
11394;SDS011;5753;54.402;10.220;2023-03-14T09:07:14;4.55;;;1.38;;
11394;SDS011;5753;54.402;10.220;2023-03-14T09:09:40;3.90;;;1.65;;
11394;SDS011;5753;54.402;10.220;2023-03-14T09:12:07;13.38;;;2.00;;
11394;SDS011;5753;54.402;10.220;2023-03-14T09:14:33;6.22;;;2.17;;
11394;SDS011;5753;54.402;10.220;2023-03-14T09:16:59;8.82;;;3.72;;
11394;SDS011;5753;54.402;10.220;2023-03-14T09:19:25;11.40;;;1.67;;
11394;SDS011;5753;54.402;10.220;2023-03-14T09:21:51;5.05;;;1.48;;
11394;SDS011;5753;54.402;10.220;2023-03-14T09:24:19;2.03;;;1.65;;
11394;SDS011;5753;54.402;10.220;2023-03-14T09:26:45;7.35;;;2.00;;
11394;SDS011;5753;54.402;10.220;2023-03-14T09:29:11;4.15;;;1.30;;
11394;SDS011;5753;54.402;10.220;2023-03-14T09:31:38;11.10;;;3.38;;
11394;SDS011;5753;54.402;10.220;2023-03-14T09:34:04;1.00;;;0.60;;
11394;SDS011;5753;54.402;10.220;2023-03-14T09:36:30;1.33;;;0.75;;
11394;SDS011;5753;54.402;10.220;2023-03-14T09:38:56;18.77;;;1.70;;
11394;SDS011;5753;54.402;10.220;2023-03-14T09:41:29;4.82;;;0.82;;
11394;SDS011;5753;54.402;10.220;2023-03-14T09:44:08;0.93;;;0.73;;
11394;SDS011;5753;54.402;10.220;2023-03-14T09:46:39;1.05;;;0.85;;
11394;SDS011;5753;54.402;10.220;2023-03-14T09:49:10;3.53;;;1.67;;
11394;SDS011;5753;54.402;10.220;2023-03-14T09:51:44;3.28;;;2.03;;
11394;SDS011;5753;54.402;10.220;2023-03-14T09:57:13;6.78;;;1.77;;
11394;SDS011;5753;54.402;10.220;2023-03-14T09:59:43;3.28;;;1.13;;
11394;SDS011;5753;54.402;10.220;2023-03-14T10:02:14;6.60;;;1.13;;
11394;SDS011;5753;54.402;10.220;2023-03-14T10:04:40;6.55;;;1.75;;
11394;SDS011;5753;54.402;10.220;2023-03-14T10:07:28;4.32;;;0.73;;
11394;SDS011;5753;54.402;10.220;2023-03-14T10:09:56;3.47;;;0.88;;
11394;SDS011;5753;54.402;10.220;2023-03-14T10:12:32;15.13;;;4.85;;
11394;SDS011;5753;54.402;10.220;2023-03-14T10:15:04;6.25;;;1.27;;
11394;SDS011;5753;54.402;10.220;2023-03-14T10:17:44;5.30;;;1.08;;
11394;SDS011;5753;54.402;10.220;2023-03-14T10:23:03;5.07;;;1.77;;
11394;SDS011;5753;54.402;10.220;2023-03-14T10:25:32;8.75;;;2.33;;
11394;SDS011;5753;54.402;10.220;2023-03-14T10:28:00;2.22;;;1.15;;
11394;SDS011;5753;54.402;10.220;2023-03-14T10:35:55;2.25;;;1.15;;
11394;SDS011;5753;54.402;10.220;2023-03-14T10:38:30;1.98;;;0.52;;
11394;SDS011;5753;54.402;10.220;2023-03-14T10:41:01;2.67;;;0.95;;
11394;SDS011;5753;54.402;10.220;2023-03-14T10:43:39;2.60;;;0.80;;
11394;SDS011;5753;54.402;10.220;2023-03-14T10:46:11;4.63;;;0.65;;
11394;SDS011;5753;54.402;10.220;2023-03-14T10:48:42;8.05;;;1.38;;
11394;SDS011;5753;54.402;10.220;2023-03-14T10:56:14;3.42;;;0.75;;
11394;SDS011;5753;54.402;10.220;2023-03-14T10:58:44;2.28;;;1.00;;
11394;SDS011;5753;54.402;10.220;2023-03-14T11:04:21;12.52;;;2.00;;
11394;SDS011;5753;54.402;10.220;2023-03-14T11:09:50;3.25;;;1.60;;
11394;SDS011;5753;54.402;10.220;2023-03-14T11:15:25;2.67;;;0.98;;
11394;SDS011;5753;54.402;10.220;2023-03-14T11:21:08;3.22;;;2.05;;
11394;SDS011;5753;54.402;10.220;2023-03-14T11:29:45;10.65;;;2.83;;
11394;SDS011;5753;54.402;10.220;2023-03-14T11:35:24;6.18;;;3.03;;
11394;SDS011;5753;54.402;10.220;2023-03-14T11:37:56;6.85;;;2.85;;
11394;SDS011;5753;54.402;10.220;2023-03-14T11:40:26;2.97;;;2.05;;
11394;SDS011;5753;54.402;10.220;2023-03-14T11:43:04;13.60;;;2.53;;
11394;SDS011;5753;54.402;10.220;2023-03-14T11:45:38;19.15;;;2.10;;
11394;SDS011;5753;54.402;10.220;2023-03-14T11:50:35;6.10;;;1.92;;
11394;SDS011;5753;54.402;10.220;2023-03-14T11:53:30;8.45;;;3.47;;
11394;SDS011;5753;54.402;10.220;2023-03-14T11:55:59;14.32;;;1.65;;
11394;SDS011;5753;54.402;10.220;2023-03-14T11:58:27;2.33;;;1.73;;
11394;SDS011;5753;54.402;10.220;2023-03-14T12:00:59;35.90;;;5.40;;
11394;SDS011;5753;54.402;10.220;2023-03-14T12:03:43;9.63;;;1.52;;
11394;SDS011;5753;54.402;10.220;2023-03-14T12:09:08;5.72;;;1.92;;
11394;SDS011;5753;54.402;10.220;2023-03-14T12:14:44;13.73;;;2.22;;
11394;SDS011;5753;54.402;10.220;2023-03-14T12:19:44;2.50;;;1.38;;
11394;SDS011;5753;54.402;10.220;2023-03-14T12:22:31;6.82;;;1.42;;
11394;SDS011;5753;54.402;10.220;2023-03-14T12:25:03;3.25;;;1.60;;
11394;SDS011;5753;54.402;10.220;2023-03-14T12:30:38;7.72;;;1.70;;
11394;SDS011;5753;54.402;10.220;2023-03-14T12:38:31;16.20;;;2.65;;
11394;SDS011;5753;54.402;10.220;2023-03-14T12:40:57;4.03;;;2.80;;
11394;SDS011;5753;54.402;10.220;2023-03-14T12:43:51;4.25;;;0.98;;
11394;SDS011;5753;54.402;10.220;2023-03-14T12:51:39;4.82;;;2.88;;
11394;SDS011;5753;54.402;10.220;2023-03-14T13:01:58;9.38;;;3.00;;
11394;SDS011;5753;54.402;10.220;2023-03-14T13:07:01;4.72;;;1.88;;
11394;SDS011;5753;54.402;10.220;2023-03-14T13:12:00;8.00;;;1.35;;
11394;SDS011;5753;54.402;10.220;2023-03-14T13:14:28;6.43;;;1.30;;
11394;SDS011;5753;54.402;10.220;2023-03-14T13:16:59;4.38;;;1.98;;
11394;SDS011;5753;54.402;10.220;2023-03-14T13:19:27;18.40;;;2.60;;
11394;SDS011;5753;54.402;10.220;2023-03-14T13:22:02;7.82;;;2.13;;
11394;SDS011;5753;54.402;10.220;2023-03-14T13:24:33;4.20;;;1.70;;
11394;SDS011;5753;54.402;10.220;2023-03-14T13:27:00;5.55;;;3.65;;
11394;SDS011;5753;54.402;10.220;2023-03-14T13:29:32;5.75;;;1.65;;
11394;SDS011;5753;54.402;10.220;2023-03-14T13:32:01;4.22;;;3.05;;
11394;SDS011;5753;54.402;10.220;2023-03-14T13:34:41;9.52;;;3.55;;
11394;SDS011;5753;54.402;10.220;2023-03-14T13:37:17;5.95;;;1.40;;
11394;SDS011;5753;54.402;10.220;2023-03-14T13:39:54;9.57;;;1.70;;
11394;SDS011;5753;54.402;10.220;2023-03-14T13:42:24;5.78;;;2.17;;
11394;SDS011;5753;54.402;10.220;2023-03-14T13:44:55;10.13;;;2.00;;
11394;SDS011;5753;54.402;10.220;2023-03-14T13:47:23;5.07;;;1.20;;
11394;SDS011;5753;54.402;10.220;2023-03-14T13:49:51;6.47;;;2.10;;
11394;SDS011;5753;54.402;10.220;2023-03-14T13:55:00;2.15;;;1.95;;
11394;SDS011;5753;54.402;10.220;2023-03-14T13:57:42;5.82;;;2.20;;
11394;SDS011;5753;54.402;10.220;2023-03-14T14:00:22;6.50;;;2.83;;
11394;SDS011;5753;54.402;10.220;2023-03-14T14:02:54;3.20;;;1.42;;
11394;SDS011;5753;54.402;10.220;2023-03-14T14:05:26;3.20;;;1.02;;
11394;SDS011;5753;54.402;10.220;2023-03-14T14:07:53;3.42;;;1.55;;
11394;SDS011;5753;54.402;10.220;2023-03-14T14:10:20;7.55;;;2.25;;
11394;SDS011;5753;54.402;10.220;2023-03-14T14:12:52;2.00;;;1.30;;
11394;SDS011;5753;54.402;10.220;2023-03-14T14:15:28;2.83;;;1.15;;
11394;SDS011;5753;54.402;10.220;2023-03-14T14:18:06;2.60;;;0.88;;
11394;SDS011;5753;54.402;10.220;2023-03-14T14:20:54;8.32;;;1.73;;
11394;SDS011;5753;54.402;10.220;2023-03-14T14:23:27;3.67;;;1.65;;
11394;SDS011;5753;54.402;10.220;2023-03-14T14:25:55;6.32;;;2.72;;
11394;SDS011;5753;54.402;10.220;2023-03-14T14:28:30;3.13;;;1.42;;
11394;SDS011;5753;54.402;10.220;2023-03-14T14:33:44;1.92;;;1.38;;
11394;SDS011;5753;54.402;10.220;2023-03-14T14:36:22;1.83;;;1.70;;
11394;SDS011;5753;54.402;10.220;2023-03-14T14:38:51;3.17;;;2.55;;
11394;SDS011;5753;54.402;10.220;2023-03-14T14:41:30;4.10;;;0.93;;
11394;SDS011;5753;54.402;10.220;2023-03-14T14:43:58;12.10;;;1.40;;
11394;SDS011;5753;54.402;10.220;2023-03-14T14:46:26;9.70;;;2.33;;
11394;SDS011;5753;54.402;10.220;2023-03-14T14:49:01;2.92;;;1.38;;
11394;SDS011;5753;54.402;10.220;2023-03-14T14:51:31;5.90;;;3.65;;
11394;SDS011;5753;54.402;10.220;2023-03-14T14:54:16;4.68;;;1.13;;
11394;SDS011;5753;54.402;10.220;2023-03-14T14:56:49;4.90;;;1.20;;
11394;SDS011;5753;54.402;10.220;2023-03-14T14:59:18;6.55;;;2.10;;
11394;SDS011;5753;54.402;10.220;2023-03-14T15:01:54;7.65;;;2.88;;
11394;SDS011;5753;54.402;10.220;2023-03-14T15:04:25;10.48;;;2.92;;
11394;SDS011;5753;54.402;10.220;2023-03-14T15:06:54;10.57;;;2.00;;
11394;SDS011;5753;54.402;10.220;2023-03-14T15:09:21;6.55;;;1.83;;
11394;SDS011;5753;54.402;10.220;2023-03-14T15:11:47;10.25;;;2.95;;
11394;SDS011;5753;54.402;10.220;2023-03-14T15:14:14;7.97;;;1.70;;
11394;SDS011;5753;54.402;10.220;2023-03-14T15:16:40;4.95;;;2.20;;
11394;SDS011;5753;54.402;10.220;2023-03-14T15:19:19;1.65;;;1.55;;
11394;SDS011;5753;54.402;10.220;2023-03-14T15:21:48;12.27;;;2.03;;
11394;SDS011;5753;54.402;10.220;2023-03-14T15:24:14;7.65;;;2.35;;
11394;SDS011;5753;54.402;10.220;2023-03-14T15:26:40;4.25;;;2.55;;
11394;SDS011;5753;54.402;10.220;2023-03-14T15:29:09;10.38;;;2.03;;
11394;SDS011;5753;54.402;10.220;2023-03-14T15:31:37;4.03;;;1.65;;
11394;SDS011;5753;54.402;10.220;2023-03-14T15:34:04;12.13;;;1.75;;
11394;SDS011;5753;54.402;10.220;2023-03-14T15:36:31;8.80;;;1.55;;
11394;SDS011;5753;54.402;10.220;2023-03-14T15:38:59;5.13;;;1.70;;
11394;SDS011;5753;54.402;10.220;2023-03-14T15:41:26;9.60;;;3.58;;
11394;SDS011;5753;54.402;10.220;2023-03-14T15:43:53;3.97;;;1.83;;
11394;SDS011;5753;54.402;10.220;2023-03-14T15:46:19;4.28;;;1.70;;
11394;SDS011;5753;54.402;10.220;2023-03-14T15:48:47;10.18;;;1.80;;
11394;SDS011;5753;54.402;10.220;2023-03-14T15:51:14;6.93;;;2.70;;
11394;SDS011;5753;54.402;10.220;2023-03-14T15:53:41;5.38;;;1.73;;
11394;SDS011;5753;54.402;10.220;2023-03-14T15:56:18;4.25;;;1.20;;
11394;SDS011;5753;54.402;10.220;2023-03-14T15:58:45;9.57;;;2.85;;
11394;SDS011;5753;54.402;10.220;2023-03-14T16:01:12;8.57;;;1.55;;
11394;SDS011;5753;54.402;10.220;2023-03-14T16:03:40;12.35;;;1.90;;
11394;SDS011;5753;54.402;10.220;2023-03-14T16:06:08;4.22;;;1.58;;
11394;SDS011;5753;54.402;10.220;2023-03-14T16:08:35;11.52;;;1.60;;
11394;SDS011;5753;54.402;10.220;2023-03-14T16:11:01;4.70;;;1.52;;
11394;SDS011;5753;54.402;10.220;2023-03-14T16:13:27;6.78;;;1.40;;
11394;SDS011;5753;54.402;10.220;2023-03-14T16:15:58;5.15;;;1.70;;